createdAt,value
2023-03-12T00:02:05.419Z,10.90
2023-03-12T00:04:34.646Z,10.05
2023-03-12T00:07:01.530Z,10.35
2023-03-12T00:09:28.161Z,10.27
2023-03-12T00:11:54.946Z,6.70
2023-03-12T00:14:21.474Z,11.23
2023-03-12T00:16:48.056Z,8.55
2023-03-12T00:19:14.702Z,8.85
2023-03-12T00:21:41.271Z,7.63
2023-03-12T00:24:08.706Z,6.28
2023-03-12T00:26:35.293Z,7.43
2023-03-12T00:29:01.856Z,11.15
2023-03-12T00:31:32.750Z,8.02
2023-03-12T00:34:01.725Z,6.82
2023-03-12T00:36:31.027Z,8.98
2023-03-12T00:39:00.103Z,11.38
2023-03-12T00:41:26.817Z,11.27
2023-03-12T00:43:53.854Z,12.57
2023-03-12T00:46:21.048Z,12.45
2023-03-12T00:48:47.629Z,11.43
2023-03-12T00:51:14.833Z,19.50
2023-03-12T00:53:41.509Z,23.25
2023-03-12T00:56:08.439Z,7.93
2023-03-12T00:58:35.115Z,6.65
2023-03-12T01:01:01.904Z,6.10
2023-03-12T01:03:28.619Z,6.35
2023-03-12T01:05:55.181Z,7.72
2023-03-12T01:08:23.528Z,8.35
2023-03-12T01:10:51.663Z,8.95
2023-03-12T01:13:18.892Z,7.20
2023-03-12T01:15:45.390Z,9.73
2023-03-12T01:18:12.000Z,7.57
2023-03-12T01:20:40.750Z,6.03
2023-03-12T01:23:08.002Z,7.65
2023-03-12T01:25:35.437Z,8.35
2023-03-12T01:28:02.141Z,7.20
2023-03-12T01:30:29.813Z,7.13
2023-03-12T01:32:56.439Z,7.93
2023-03-12T01:35:23.116Z,7.50
2023-03-12T01:37:50.005Z,5.78
2023-03-12T01:40:25.336Z,6.93
2023-03-12T01:42:57.082Z,6.18
2023-03-12T01:46:01.074Z,7.72
2023-03-12T01:48:30.622Z,7.70
2023-03-12T01:50:58.285Z,7.75
2023-03-12T01:53:25.051Z,7.30
2023-03-12T01:55:52.262Z,5.43
2023-03-12T01:58:19.014Z,4.43
2023-03-12T02:00:45.921Z,6.85
2023-03-12T02:03:15.584Z,5.93
2023-03-12T02:06:06.792Z,6.38
2023-03-12T02:08:38.370Z,13.77
2023-03-12T02:11:05.496Z,7.40
2023-03-12T02:13:32.362Z,7.75
2023-03-12T02:15:59.450Z,9.40
2023-03-12T02:18:27.177Z,8.98
2023-03-12T02:21:08.485Z,4.55
2023-03-12T02:23:45.541Z,7.75
2023-03-12T02:26:13.502Z,7.45
2023-03-12T02:28:45.885Z,6.03
2023-03-12T02:31:14.714Z,9.35
2023-03-12T02:33:41.685Z,7.28
2023-03-12T02:36:09.322Z,7.75
2023-03-12T02:38:38.596Z,9.25
2023-03-12T02:41:13.079Z,4.63
2023-03-12T02:43:40.812Z,4.03
2023-03-12T02:46:08.598Z,9.32
2023-03-12T02:48:35.499Z,7.32
2023-03-12T02:51:03.277Z,7.78
2023-03-12T02:53:30.309Z,8.73
2023-03-12T02:55:57.141Z,7.22
2023-03-12T02:58:24.099Z,7.80
2023-03-12T03:00:50.723Z,5.75
2023-03-12T03:03:17.583Z,3.92
2023-03-12T03:05:44.172Z,7.70
2023-03-12T03:08:10.905Z,6.93
2023-03-12T03:10:37.706Z,6.28
2023-03-12T03:13:04.547Z,4.13
2023-03-12T03:15:31.378Z,5.07
2023-03-12T03:17:58.450Z,7.55
2023-03-12T03:20:26.661Z,3.22
2023-03-12T03:22:53.354Z,4.25
2023-03-12T03:25:23.022Z,6.43
2023-03-12T03:27:50.093Z,8.32
2023-03-12T03:30:17.671Z,6.47
2023-03-12T03:32:46.595Z,9.52
2023-03-12T03:35:14.461Z,12.52
2023-03-12T03:37:41.029Z,7.55
2023-03-12T03:40:11.762Z,8.20
2023-03-12T03:42:39.571Z,6.30
2023-03-12T03:45:08.219Z,8.80
2023-03-12T03:47:34.988Z,9.30
2023-03-12T03:50:03.319Z,4.93
2023-03-12T03:52:31.028Z,6.78
2023-03-12T03:54:59.328Z,7.88
2023-03-12T03:57:26.918Z,7.82
2023-03-12T03:59:53.600Z,8.40
2023-03-12T04:02:20.864Z,6.70
2023-03-12T04:04:47.851Z,12.07
2023-03-12T04:07:15.179Z,10.95
2023-03-12T04:09:42.034Z,11.25
2023-03-12T04:12:09.086Z,8.73
2023-03-12T04:14:40.881Z,8.20
2023-03-12T04:17:08.726Z,8.68
2023-03-12T04:19:36.043Z,8.93
2023-03-12T04:22:04.991Z,5.82
2023-03-12T04:24:31.603Z,9.05
2023-03-12T04:26:59.119Z,12.23
2023-03-12T04:29:26.441Z,5.60
2023-03-12T04:31:53.481Z,5.22
2023-03-12T04:34:20.318Z,7.25
2023-03-12T04:36:49.220Z,9.45
2023-03-12T04:39:20.146Z,7.97
2023-03-12T04:41:49.395Z,7.32
2023-03-12T04:44:16.562Z,5.00
2023-03-12T04:46:43.621Z,8.40
2023-03-12T04:49:13.764Z,5.57
2023-03-12T04:51:41.910Z,3.58
2023-03-12T04:54:08.863Z,6.40
2023-03-12T04:56:37.017Z,5.65
2023-03-12T04:59:04.856Z,9.82
2023-03-12T05:01:33.874Z,6.82
2023-03-12T05:04:05.359Z,7.82
2023-03-12T05:06:32.828Z,11.32
2023-03-12T05:08:59.762Z,4.93
2023-03-12T05:11:26.478Z,10.50
2023-03-12T05:13:53.164Z,6.40
2023-03-12T05:16:20.388Z,7.30
2023-03-12T05:18:47.588Z,9.63
2023-03-12T05:21:18.291Z,4.82
2023-03-12T05:23:45.711Z,6.82
2023-03-12T05:26:16.751Z,7.10
2023-03-12T05:28:44.149Z,5.13
2023-03-12T05:31:12.134Z,7.05
2023-03-12T05:33:39.588Z,12.63
2023-03-12T05:36:07.327Z,8.20
2023-03-12T05:38:34.419Z,6.82
2023-03-12T05:41:01.119Z,9.15
2023-03-12T05:43:30.352Z,7.07
2023-03-12T05:46:03.760Z,6.25
2023-03-12T05:48:31.669Z,7.93
2023-03-12T05:50:58.633Z,9.75
2023-03-12T05:53:25.358Z,7.95
2023-03-12T05:55:53.144Z,8.60
2023-03-12T05:58:20.380Z,6.38
2023-03-12T06:00:47.342Z,8.43
2023-03-12T06:03:16.041Z,6.18
2023-03-12T06:05:44.347Z,7.13
2023-03-12T06:08:11.053Z,7.10
2023-03-12T06:10:39.092Z,5.95
2023-03-12T06:13:06.159Z,4.20
2023-03-12T06:15:33.055Z,6.28
2023-03-12T06:18:00.285Z,7.68
2023-03-12T06:20:26.961Z,8.05
2023-03-12T06:22:53.593Z,7.53
2023-03-12T06:25:20.263Z,5.95
2023-03-12T06:27:46.890Z,7.28
2023-03-12T06:30:14.232Z,5.85
2023-03-12T06:32:40.895Z,6.50
2023-03-12T06:35:07.944Z,6.82
2023-03-12T06:37:34.534Z,8.13
2023-03-12T06:40:01.926Z,5.30
2023-03-12T06:42:28.987Z,7.05
2023-03-12T06:44:55.542Z,7.50
2023-03-12T06:47:22.339Z,9.88
2023-03-12T06:49:48.931Z,6.70
2023-03-12T06:52:16.089Z,7.35
2023-03-12T06:54:42.807Z,7.20
2023-03-12T06:57:09.344Z,8.57
2023-03-12T06:59:35.987Z,11.18
2023-03-12T07:02:02.807Z,4.82
2023-03-12T07:04:29.393Z,9.63
2023-03-12T07:06:55.939Z,8.02
2023-03-12T07:09:22.578Z,8.90
2023-03-12T07:11:49.144Z,10.23
2023-03-12T07:14:15.717Z,7.57
2023-03-12T07:16:42.358Z,8.07
2023-03-12T07:19:08.859Z,7.20
2023-03-12T07:21:35.500Z,7.63
2023-03-12T07:24:06.710Z,6.10
2023-03-12T07:26:35.347Z,9.73
2023-03-12T07:29:03.840Z,8.38
2023-03-12T07:31:31.006Z,7.85
2023-03-12T07:33:57.775Z,7.25
2023-03-12T07:36:24.830Z,7.78
2023-03-12T07:38:51.485Z,10.80
2023-03-12T07:41:18.187Z,9.07
2023-03-12T07:43:44.806Z,6.63
2023-03-12T07:46:11.502Z,9.98
2023-03-12T07:48:38.604Z,7.97
2023-03-12T07:51:06.283Z,9.02
2023-03-12T07:53:32.942Z,11.88
2023-03-12T07:55:59.776Z,9.70
2023-03-12T07:58:26.599Z,9.38
2023-03-12T08:00:55.689Z,12.25
2023-03-12T08:03:22.748Z,9.10
2023-03-12T08:06:01.515Z,13.13
2023-03-12T08:08:29.110Z,7.65
2023-03-12T08:10:55.780Z,9.27
2023-03-12T08:13:23.882Z,9.43
2023-03-12T08:15:52.840Z,13.82
2023-03-12T08:18:20.501Z,8.20
2023-03-12T08:20:51.758Z,9.57
2023-03-12T08:23:18.866Z,13.75
2023-03-12T08:25:49.895Z,11.40
2023-03-12T08:28:17.890Z,10.07
2023-03-12T08:30:49.226Z,8.70
2023-03-12T08:33:16.509Z,8.10
2023-03-12T08:35:43.194Z,7.97
2023-03-12T08:38:09.781Z,8.00
2023-03-12T08:40:36.549Z,7.40
2023-03-12T08:43:03.910Z,8.38
2023-03-12T08:45:30.964Z,9.48
2023-03-12T08:47:57.584Z,6.13
2023-03-12T08:50:26.332Z,10.40
2023-03-12T08:52:52.980Z,8.68
2023-03-12T08:55:19.589Z,8.35
2023-03-12T08:57:46.958Z,8.30
2023-03-12T09:00:15.957Z,9.77
2023-03-12T09:02:46.354Z,6.32
2023-03-12T09:05:14.134Z,9.45
2023-03-12T09:07:41.205Z,7.35
2023-03-12T09:10:08.631Z,10.38
2023-03-12T09:12:35.262Z,12.50
2023-03-12T09:15:03.910Z,9.38
2023-03-12T09:17:31.275Z,9.52
2023-03-12T09:19:58.026Z,11.60
2023-03-12T09:22:24.648Z,7.57
2023-03-12T09:24:51.228Z,8.13
2023-03-12T09:27:17.925Z,12.65
2023-03-12T09:29:58.759Z,9.23
2023-03-12T09:32:27.517Z,9.63
2023-03-12T09:34:54.409Z,9.75
2023-03-12T09:37:23.889Z,8.73
2023-03-12T09:39:52.141Z,8.65
2023-03-12T09:42:41.440Z,12.50
2023-03-12T09:45:15.479Z,11.68
2023-03-12T09:47:53.936Z,12.98
2023-03-12T09:50:33.547Z,10.73
2023-03-12T09:53:04.612Z,12.45
2023-03-12T09:55:44.640Z,14.32
2023-03-12T09:58:22.384Z,13.65
2023-03-12T10:00:48.953Z,13.93
2023-03-12T10:03:22.749Z,16.35
2023-03-12T10:06:15.410Z,15.80
2023-03-12T10:08:54.002Z,15.80
2023-03-12T10:11:48.353Z,18.00
2023-03-12T10:14:43.132Z,14.18
2023-03-12T10:17:50.384Z,18.20
2023-03-12T10:20:51.701Z,19.75
2023-03-12T10:23:35.226Z,17.20
2023-03-12T10:26:16.333Z,17.80
2023-03-12T10:28:50.742Z,23.17
2023-03-12T10:31:32.385Z,17.85
2023-03-12T10:34:01.263Z,20.20
2023-03-12T10:36:33.592Z,21.42
2023-03-12T10:39:00.234Z,17.67
2023-03-12T10:41:34.164Z,21.92
2023-03-12T10:44:06.389Z,19.30
2023-03-12T10:46:39.579Z,18.20
2023-03-12T10:49:21.545Z,21.23
2023-03-12T10:51:55.697Z,19.17
2023-03-12T10:54:27.825Z,18.30
2023-03-12T10:56:54.372Z,20.98
2023-03-12T10:59:25.445Z,23.65
2023-03-12T11:01:52.991Z,18.45
2023-03-12T11:04:26.988Z,17.80
2023-03-12T11:07:19.846Z,18.75
2023-03-12T11:10:22.753Z,15.25
2023-03-12T11:13:02.504Z,19.52
2023-03-12T11:15:43.626Z,19.25
2023-03-12T11:18:21.098Z,19.00
2023-03-12T11:20:52.434Z,23.67
2023-03-12T11:23:26.571Z,18.45
2023-03-12T11:25:57.429Z,19.92
2023-03-12T11:28:29.581Z,19.33
2023-03-12T11:30:58.204Z,21.85
2023-03-12T11:33:24.933Z,21.63
2023-03-12T11:36:22.980Z,19.50
2023-03-12T11:39:21.731Z,19.70
2023-03-12T11:41:56.959Z,24.80
2023-03-12T11:44:31.652Z,22.65
2023-03-12T11:47:16.263Z,24.08
2023-03-12T11:50:07.184Z,21.92
2023-03-12T11:52:51.208Z,24.70
2023-03-12T11:55:47.141Z,23.23
2023-03-12T11:58:30.894Z,13.40
2023-03-12T12:01:17.143Z,18.10
2023-03-12T12:04:12.188Z,16.52
2023-03-12T12:06:48.313Z,21.05
2023-03-12T12:09:44.705Z,19.83
2023-03-12T12:12:17.423Z,22.52
2023-03-12T12:15:23.580Z,20.42
2023-03-12T12:17:56.049Z,19.95
2023-03-12T12:20:37.613Z,27.02
2023-03-12T12:23:16.116Z,24.70
2023-03-12T12:26:05.969Z,25.55
2023-03-12T12:29:18.284Z,19.48
2023-03-12T12:31:55.793Z,21.63
2023-03-12T12:34:51.871Z,24.58
2023-03-12T12:37:30.607Z,27.13
2023-03-12T12:40:39.009Z,23.45
2023-03-12T12:43:32.592Z,28.05
2023-03-12T12:46:05.146Z,26.05
2023-03-12T12:51:12.256Z,21.67
2023-03-12T12:54:05.651Z,19.95
2023-03-12T12:56:45.907Z,24.42
2023-03-12T12:59:43.463Z,26.08
2023-03-12T13:02:19.033Z,27.85
2023-03-12T13:04:46.330Z,22.20
2023-03-12T13:07:12.869Z,21.27
2023-03-12T13:09:50.417Z,22.38
2023-03-12T13:12:22.079Z,26.70
2023-03-12T13:14:49.776Z,30.73
2023-03-12T13:17:27.151Z,25.13
2023-03-12T13:20:01.938Z,27.45
2023-03-12T13:22:44.916Z,18.80
2023-03-12T13:27:47.763Z,23.55
2023-03-12T13:30:32.848Z,26.73
2023-03-12T13:32:59.621Z,23.88
2023-03-12T13:35:31.721Z,27.13
2023-03-12T13:38:01.785Z,19.90
2023-03-12T13:40:51.955Z,23.77
2023-03-12T13:43:54.515Z,20.80
2023-03-12T13:46:29.506Z,19.90
2023-03-12T13:49:00.990Z,31.90
2023-03-12T13:51:28.160Z,27.52
2023-03-12T13:54:00.288Z,24.73
2023-03-12T13:56:32.741Z,28.55
2023-03-12T13:59:13.589Z,25.70
2023-03-12T14:01:48.191Z,23.50
2023-03-12T14:04:22.539Z,28.98
2023-03-12T14:07:14.635Z,25.60
2023-03-12T14:10:02.122Z,24.83
2023-03-12T14:12:39.326Z,26.20
2023-03-12T14:15:20.281Z,24.73
2023-03-12T14:18:04.074Z,25.52
2023-03-12T14:20:31.108Z,23.00
2023-03-12T14:23:07.401Z,23.67
2023-03-12T14:25:43.257Z,24.67
2023-03-12T14:28:23.013Z,26.52
2023-03-12T14:30:56.452Z,23.05
2023-03-12T14:33:24.945Z,29.38
2023-03-12T14:36:00.289Z,24.30
2023-03-12T14:38:33.150Z,28.17
2023-03-12T14:41:05.049Z,22.92
2023-03-12T14:43:34.642Z,20.88
2023-03-12T14:46:05.654Z,23.23
2023-03-12T14:48:34.392Z,22.70
2023-03-12T14:51:02.851Z,27.27
2023-03-12T14:53:33.015Z,27.45
2023-03-12T14:56:15.667Z,23.30
2023-03-12T14:58:49.514Z,26.85
2023-03-12T15:01:20.703Z,26.98
2023-03-12T15:03:53.713Z,28.33
2023-03-12T15:06:31.911Z,20.52
2023-03-12T15:09:02.542Z,21.92
2023-03-12T15:11:30.686Z,27.55
2023-03-12T15:14:04.943Z,29.30
2023-03-12T15:16:31.795Z,26.95
2023-03-12T15:18:58.818Z,28.40
2023-03-12T15:21:25.848Z,25.55
2023-03-12T15:23:53.058Z,26.10
2023-03-12T15:26:19.666Z,29.58
2023-03-12T15:29:05.152Z,25.52
2023-03-12T15:31:50.114Z,21.83
2023-03-12T15:34:27.768Z,31.02
2023-03-12T15:36:54.896Z,26.23
2023-03-12T15:39:29.729Z,26.23
2023-03-12T15:42:01.498Z,24.77
2023-03-12T15:44:36.062Z,30.55
2023-03-12T15:47:11.556Z,26.17
2023-03-12T15:49:39.304Z,36.30
2023-03-12T15:52:26.782Z,31.20
2023-03-12T15:55:00.099Z,31.38
2023-03-12T15:57:26.698Z,27.75
2023-03-12T16:00:20.924Z,23.75
2023-03-12T16:03:15.934Z,37.35
2023-03-12T16:05:42.983Z,27.05
2023-03-12T16:08:27.074Z,29.13
2023-03-12T16:10:53.831Z,34.83
2023-03-12T16:13:23.375Z,33.45
2023-03-12T16:15:50.047Z,27.88
2023-03-12T16:18:19.228Z,26.85
2023-03-12T16:20:47.417Z,33.03
2023-03-12T16:23:14.373Z,24.65
2023-03-12T16:25:45.965Z,39.10
2023-03-12T16:28:15.364Z,26.15
2023-03-12T16:30:42.264Z,26.20
2023-03-12T16:33:14.128Z,30.13
2023-03-12T16:35:40.773Z,29.95
2023-03-12T16:38:07.398Z,29.13
2023-03-12T16:40:37.205Z,32.10
2023-03-12T16:43:06.750Z,23.98
2023-03-12T16:45:38.571Z,24.70
2023-03-12T16:48:06.698Z,26.20
2023-03-12T16:50:33.264Z,21.90
2023-03-12T16:52:59.914Z,24.75
2023-03-12T16:55:44.183Z,28.08
2023-03-12T16:58:13.145Z,32.90
2023-03-12T17:00:40.578Z,30.23
2023-03-12T17:03:07.234Z,21.75
2023-03-12T17:05:33.821Z,33.10
2023-03-12T17:08:00.370Z,22.35
2023-03-12T17:10:27.041Z,29.90
2023-03-12T17:12:53.921Z,24.08
2023-03-12T17:15:25.824Z,27.63
2023-03-12T17:17:53.718Z,23.33
2023-03-12T17:20:21.935Z,31.80
2023-03-12T17:22:48.590Z,30.55
2023-03-12T17:25:24.785Z,27.77
2023-03-12T17:27:52.279Z,33.60
2023-03-12T17:30:21.529Z,27.67
2023-03-12T17:32:49.184Z,23.27
2023-03-12T17:35:15.889Z,25.00
2023-03-12T17:37:42.492Z,19.80
2023-03-12T17:40:10.909Z,25.00
2023-03-12T17:42:38.504Z,29.15
2023-03-12T17:45:06.767Z,32.67
2023-03-12T17:47:33.420Z,31.25
2023-03-12T17:50:00.090Z,26.95
2023-03-12T17:52:26.636Z,29.88
2023-03-12T17:54:53.323Z,26.70
2023-03-12T17:57:19.840Z,28.52
2023-03-12T17:59:46.440Z,24.20
2023-03-12T18:02:14.249Z,25.75
2023-03-12T18:04:40.876Z,24.45
2023-03-12T18:07:07.946Z,28.55
2023-03-12T18:09:35.116Z,27.83
2023-03-12T18:12:01.993Z,24.88
2023-03-12T18:14:28.568Z,30.98
2023-03-12T18:16:55.092Z,31.02
2023-03-12T18:19:21.716Z,28.60
2023-03-12T18:21:48.224Z,33.50
2023-03-12T18:24:14.975Z,24.55
2023-03-12T18:26:42.084Z,29.20
2023-03-12T18:29:08.703Z,28.40
2023-03-12T18:31:35.351Z,29.65
2023-03-12T18:34:01.937Z,27.05
2023-03-12T18:36:28.778Z,21.63
2023-03-12T18:38:55.353Z,28.15
2023-03-12T18:41:21.913Z,30.05
2023-03-12T18:43:48.550Z,28.88
2023-03-12T18:46:15.182Z,33.15
2023-03-12T18:48:43.992Z,31.77
2023-03-12T18:51:10.922Z,35.03
2023-03-12T18:53:37.520Z,34.15
2023-03-12T18:56:04.358Z,25.85
2023-03-12T18:58:30.868Z,28.70
2023-03-12T19:00:58.549Z,31.95
2023-03-12T19:03:26.902Z,33.95
2023-03-12T19:06:09.607Z,32.33
2023-03-12T19:08:39.690Z,36.53
2023-03-12T19:11:08.257Z,41.58
2023-03-12T19:13:35.274Z,30.35
2023-03-12T19:16:04.817Z,38.03
2023-03-12T19:18:31.607Z,28.40
2023-03-12T19:20:58.234Z,32.80
2023-03-12T19:23:24.913Z,31.08
2023-03-12T19:25:51.444Z,30.38
2023-03-12T19:28:17.982Z,29.23
2023-03-12T19:30:44.579Z,25.10
2023-03-12T19:33:11.300Z,31.75
2023-03-12T19:35:39.722Z,38.72
2023-03-12T19:38:06.366Z,27.80
2023-03-12T19:40:34.117Z,29.02
2023-03-12T19:43:01.365Z,31.38
2023-03-12T19:45:28.488Z,35.15
2023-03-12T19:47:55.296Z,26.52
2023-03-12T19:50:22.058Z,31.80
2023-03-12T19:52:48.680Z,41.10
2023-03-12T19:55:15.299Z,32.40
2023-03-12T19:57:41.801Z,28.58
2023-03-12T20:00:09.759Z,25.58
2023-03-12T20:02:37.316Z,25.27
2023-03-12T20:05:05.245Z,27.85
2023-03-12T20:07:32.280Z,37.70
2023-03-12T20:09:58.912Z,33.08
2023-03-12T20:12:25.605Z,23.80
2023-03-12T20:14:52.274Z,32.83
2023-03-12T20:17:18.861Z,30.52
2023-03-12T20:19:45.492Z,34.38
2023-03-12T20:22:12.202Z,30.20
2023-03-12T20:24:38.749Z,29.65
2023-03-12T20:27:05.325Z,20.17
2023-03-12T20:29:31.988Z,23.73
2023-03-12T20:31:58.603Z,30.58
2023-03-12T20:34:25.242Z,23.83
2023-03-12T20:36:52.120Z,38.53
2023-03-12T20:39:18.679Z,30.35
2023-03-12T20:41:45.202Z,22.80
2023-03-12T20:44:11.775Z,30.08
2023-03-12T20:46:38.368Z,27.35
2023-03-12T20:49:04.946Z,30.48
2023-03-12T20:51:31.619Z,28.38
2023-03-12T20:53:58.236Z,28.35
2023-03-12T20:56:24.789Z,22.13
2023-03-12T20:58:52.226Z,24.63
2023-03-12T21:01:18.931Z,27.00
2023-03-12T21:03:45.860Z,28.38
2023-03-12T21:06:12.415Z,26.23
2023-03-12T21:08:38.998Z,24.65
2023-03-12T21:11:06.600Z,31.08
2023-03-12T21:13:33.155Z,30.58
2023-03-12T21:15:59.830Z,41.05
2023-03-12T21:18:26.406Z,36.58
2023-03-12T21:20:53.245Z,32.97
2023-03-12T21:23:19.801Z,25.88
2023-03-12T21:25:46.491Z,26.38
2023-03-12T21:28:15.898Z,27.85
2023-03-12T21:30:42.469Z,32.55
2023-03-12T21:33:10.295Z,31.73
2023-03-12T21:35:36.836Z,27.70
2023-03-12T21:38:03.388Z,24.17
2023-03-12T21:40:29.951Z,28.70
2023-03-12T21:42:56.590Z,32.90
2023-03-12T21:45:23.259Z,27.33
2023-03-12T21:47:49.813Z,30.00
2023-03-12T21:50:16.527Z,20.70
2023-03-12T21:52:47.800Z,26.40
2023-03-12T21:55:18.059Z,25.50
2023-03-12T21:57:45.409Z,33.90
2023-03-12T22:00:13.775Z,29.95
2023-03-12T22:02:41.508Z,26.10
2023-03-12T22:05:08.926Z,27.42
2023-03-12T22:07:35.809Z,20.92
2023-03-12T22:10:03.897Z,29.00
2023-03-12T22:12:30.439Z,27.52
2023-03-12T22:14:57.078Z,28.80
2023-03-12T22:17:23.778Z,24.55
2023-03-12T22:19:50.611Z,25.92
2023-03-12T22:22:17.190Z,28.73
2023-03-12T22:24:43.753Z,28.13
2023-03-12T22:27:10.399Z,28.02
2023-03-12T22:29:37.402Z,21.67
2023-03-12T22:32:04.245Z,27.52
2023-03-12T22:34:30.792Z,23.80
2023-03-12T22:36:57.445Z,23.35
2023-03-12T22:39:23.943Z,23.02
2023-03-12T22:41:50.694Z,20.77
2023-03-12T22:44:17.230Z,24.27
2023-03-12T22:46:43.727Z,21.67
2023-03-12T22:49:10.364Z,23.27
2023-03-12T22:51:37.334Z,23.27
2023-03-12T22:54:04.547Z,23.02
2023-03-12T22:56:31.146Z,19.98
2023-03-12T22:58:57.652Z,18.88
2023-03-12T23:01:24.897Z,21.38
2023-03-12T23:03:52.035Z,23.23
2023-03-12T23:06:29.966Z,20.75
2023-03-12T23:08:57.245Z,21.30
2023-03-12T23:11:26.140Z,20.73
2023-03-12T23:13:54.658Z,23.52
2023-03-12T23:16:24.043Z,18.95
2023-03-12T23:18:51.042Z,27.42
2023-03-12T23:21:20.414Z,22.90
2023-03-12T23:23:47.696Z,22.17
2023-03-12T23:26:20.058Z,20.60
2023-03-12T23:28:47.394Z,19.20
2023-03-12T23:31:15.655Z,23.20
2023-03-12T23:33:42.301Z,20.42
2023-03-12T23:36:11.556Z,16.85
2023-03-12T23:38:38.851Z,19.35
2023-03-12T23:41:17.060Z,22.50
2023-03-12T23:43:43.893Z,24.83
2023-03-12T23:46:11.516Z,19.60
2023-03-12T23:48:39.347Z,16.52
2023-03-12T23:51:11.623Z,24.02
2023-03-12T23:53:39.715Z,21.08
2023-03-12T23:56:09.554Z,23.23
2023-03-12T23:58:36.445Z,20.70
